Time;durP1;ratioP1;P1;durP2;ratioP2;P2;SDS_P1;SDS_P2;PMS_P1;PMS_P2;Temp;Humidity;BMP_temperature;BMP_pressure;BME280_temperature;BME280_humidity;BME280_pressure;Samples;Min_cycle;Max_cycle;Signal;HPM_P1;HPM_P2
2022/02/12 00:00:39;;;;;;;5.40;2.17;;;6.80;25.60;;;;;;5041236;28;20234;-80
2022/02/12 00:03:09;;;;;;;3.50;2.88;;;6.80;25.80;;;;;;5043538;28;20193;-80
2022/02/12 00:05:37;;;;;;;4.60;3.47;;;6.80;25.50;;;;;;5043914;28;20209;-79
2022/02/12 00:08:06;;;;;;;4.10;2.97;;;6.70;25.30;;;;;;5043679;28;20459;-79
2022/02/12 00:10:34;;;;;;;5.00;2.60;;;6.70;24.70;;;;;;5042367;28;20479;-80
2022/02/12 00:13:11;;;;;;;3.93;2.70;;;6.60;25.10;;;;;;5055421;28;20534;-79
2022/02/12 00:15:39;;;;;;;2.78;2.25;;;6.60;23.60;;;;;;5037342;28;20533;-80
2022/02/12 00:18:08;;;;;;;5.90;2.40;;;6.60;24.30;;;;;;5043260;28;20231;-80
2022/02/12 00:20:37;;;;;;;10.60;2.50;;;6.50;24.90;;;;;;5042544;28;20246;-79
2022/02/12 00:23:05;;;;;;;5.15;2.58;;;6.50;23.90;;;;;;5044070;28;20519;-79
2022/02/12 00:25:34;;;;;;;3.47;2.55;;;6.50;24.70;;;;;;5044503;28;20185;-79
2022/02/12 00:28:04;;;;;;;7.05;3.25;;;6.50;24.60;;;;;;5040813;28;20213;-79
2022/02/12 00:30:32;;;;;;;3.85;2.70;;;6.50;23.00;;;;;;5038676;28;20797;-80
2022/02/12 00:33:06;;;;;;;6.10;3.20;;;6.40;23.80;;;;;;5038144;28;20288;-79
2022/02/12 00:35:35;;;;;;;5.70;2.67;;;6.40;22.80;;;;;;5039652;28;20244;-79
2022/02/12 00:38:03;;;;;;;7.03;4.90;;;6.40;23.80;;;;;;5039333;28;20636;-79
2022/02/12 00:40:31;;;;;;;5.87;3.80;;;6.40;24.40;;;;;;5044797;28;20484;-79
2022/02/12 00:42:59;;;;;;;3.60;2.90;;;6.40;24.20;;;;;;5041646;28;20868;-78
2022/02/12 00:45:29;;;;;;;3.83;2.70;;;6.40;24.10;;;;;;5041948;28;20456;-80
2022/02/12 00:47:57;;;;;;;2.60;2.40;;;6.40;23.80;;;;;;5044226;28;20455;-80
2022/02/12 00:50:25;;;;;;;3.30;2.37;;;6.40;25.60;;;;;;5042855;28;20693;-79
2022/02/12 00:52:53;;;;;;;3.00;2.70;;;6.50;25.30;;;;;;5041119;28;20447;-78
2022/02/12 00:55:22;;;;;;;6.97;3.08;;;6.70;24.40;;;;;;5042380;28;20601;-79
2022/02/12 00:57:50;;;;;;;4.93;3.60;;;6.40;24.80;;;;;;5041906;28;20271;-79
2022/02/12 01:00:19;;;;;;;5.22;3.50;;;6.40;26.50;;;;;;5040518;28;20284;-80
2022/02/12 01:02:49;;;;;;;8.02;4.35;;;6.60;25.20;;;;;;5040412;28;20252;-79
2022/02/12 01:05:17;;;;;;;9.87;3.80;;;6.30;38.10;;;;;;5040181;28;20209;-79
2022/02/12 01:07:47;;;;;;;5.75;3.47;;;6.40;28.00;;;;;;5042169;28;20447;-78
2022/02/12 01:10:15;;;;;;;2.25;1.90;;;6.40;28.80;;;;;;5043087;28;20225;-79
2022/02/12 01:12:43;;;;;;;4.73;2.30;;;6.40;29.30;;;;;;5041261;28;20201;-79
2022/02/12 01:15:12;;;;;;;5.15;3.22;;;6.50;31.20;;;;;;5037960;28;20569;-79
2022/02/12 01:17:40;;;;;;;5.07;3.17;;;6.50;45.10;;;;;;5039044;28;20225;-78
2022/02/12 01:20:11;;;;;;;5.35;3.80;;;6.50;31.10;;;;;;5043509;28;20257;-79
2022/02/12 01:22:40;;;;;;;5.60;3.90;;;6.50;32.30;;;;;;5041872;28;20266;-80
2022/02/12 01:25:09;;;;;;;7.00;4.88;;;6.50;34.10;;;;;;5042745;28;20209;-79
2022/02/12 01:27:38;;;;;;;6.82;4.68;;;6.50;33.10;;;;;;5042742;28;20201;-79
2022/02/12 01:30:07;;;;;;;7.93;5.10;;;6.50;35.40;;;;;;5038546;28;20216;-78
2022/02/12 01:32:36;;;;;;;8.88;4.70;;;6.40;34.00;;;;;;5042442;28;20227;-78
2022/02/12 01:35:07;;;;;;;9.18;6.22;;;6.40;33.70;;;;;;5041224;28;20266;-79
2022/02/12 01:37:37;;;;;;;8.00;5.13;;;6.40;31.30;;;;;;5044019;28;20221;-79
2022/02/12 01:40:07;;;;;;;6.20;5.28;;;6.30;32.10;;;;;;5040679;28;20486;-80
2022/02/12 01:42:36;;;;;;;8.48;4.78;;;6.30;29.40;;;;;;5037179;28;20668;-79
2022/02/12 01:45:04;;;;;;;6.90;4.15;;;6.20;29.10;;;;;;5040599;28;20204;-78
2022/02/12 01:47:33;;;;;;;7.10;3.15;;;6.20;27.40;;;;;;5039136;28;20304;-79
2022/02/12 01:50:01;;;;;;;7.95;3.95;;;6.20;27.60;;;;;;5034966;28;20225;-80
2022/02/12 01:52:31;;;;;;;3.45;3.15;;;6.10;26.50;;;;;;5039444;28;20209;-80
2022/02/12 01:55:01;;;;;;;5.15;4.20;;;6.00;26.20;;;;;;5038341;28;21814;-80
2022/02/12 01:57:30;;;;;;;3.40;3.00;;;6.00;25.30;;;;;;5037581;28;20220;-79
2022/02/12 01:59:58;;;;;;;4.05;3.58;;;6.00;25.70;;;;;;5035577;28;20222;-80
2022/02/12 02:02:27;;;;;;;10.30;3.75;;;5.90;23.90;;;;;;5045614;28;20193;-79
2022/02/12 02:04:55;;;;;;;6.00;3.15;;;5.90;23.90;;;;;;5040670;28;20216;-79
2022/02/12 02:07:24;;;;;;;4.93;3.20;;;5.80;23.30;;;;;;5040668;28;20191;-79
2022/02/12 02:09:52;;;;;;;3.17;2.50;;;5.80;23.30;;;;;;5041502;28;20229;-78
2022/02/12 02:12:22;;;;;;;3.80;3.35;;;5.80;23.70;;;;;;5039516;28;20221;-78
2022/02/12 02:14:52;;;;;;;4.63;2.92;;;5.80;23.60;;;;;;5036291;28;20226;-78
2022/02/12 02:17:20;;;;;;;5.40;3.58;;;5.80;24.20;;;;;;5041141;28;20235;-78
2022/02/12 02:19:49;;;;;;;6.88;3.53;;;5.80;23.50;;;;;;5042015;28;20231;-79
2022/02/12 02:22:17;;;;;;;4.18;3.08;;;5.80;23.40;;;;;;5037078;28;20213;-78
2022/02/12 02:24:47;;;;;;;4.25;2.88;;;6.00;22.50;;;;;;5042117;28;20204;-79
2022/02/12 02:27:18;;;;;;;4.45;2.58;;;5.70;23.20;;;;;;5039442;28;20592;-80
2022/02/12 02:29:46;;;;;;;9.13;2.85;;;5.80;23.20;;;;;;5042735;28;20267;-79
2022/02/12 02:32:17;;;;;;;5.35;3.47;;;6.10;24.40;;;;;;5042180;28;20785;-79
2022/02/12 02:34:50;;;;;;;4.55;2.55;;;5.80;22.80;;;;;;5039355;28;20661;-80
2022/02/12 02:37:18;;;;;;;4.85;3.85;;;5.80;22.70;;;;;;5051340;28;20221;-80
2022/02/12 02:39:48;;;;;;;4.63;2.72;;;5.70;23.80;;;;;;5040498;28;20231;-78
2022/02/12 02:42:17;;;;;;;4.32;2.90;;;5.80;23.80;;;;;;5045757;28;20213;-79
2022/02/12 02:44:45;;;;;;;7.10;3.92;;;5.70;24.80;;;;;;5046000;28;20207;-79
2022/02/12 02:50:02;;;;;;;4.43;4.03;;;5.70;21.30;;;;;;5043468;28;20217;-79
2022/02/12 02:58:04;;;;;;;4.32;3.00;;;5.50;21.30;;;;;;5044100;28;20618;-79
2022/02/12 03:00:32;;;;;;;4.40;3.78;;;5.70;19.90;;;;;;5042503;28;20235;-80
2022/02/12 03:03:01;;;;;;;7.70;4.30;;;5.50;22.70;;;;;;5043332;28;20247;-78
2022/02/12 03:05:29;;;;;;;4.88;4.07;;;5.50;22.10;;;;;;5041001;28;20192;-78
2022/02/12 03:07:58;;;;;;;4.40;3.60;;;5.50;25.20;;;;;;5045051;28;20196;-78
2022/02/12 03:10:28;;;;;;;5.43;3.70;;;5.60;23.90;;;;;;5041548;28;20233;-78
2022/02/12 03:12:56;;;;;;;4.97;3.35;;;5.70;21.60;;;;;;5044665;28;20196;-79
2022/02/12 03:15:25;;;;;;;8.18;3.88;;;5.50;21.50;;;;;;5043438;28;20735;-78
2022/02/12 03:17:53;;;;;;;10.23;3.40;;;5.50;21.40;;;;;;5041983;28;20255;-78
2022/02/12 03:20:21;;;;;;;5.57;3.58;;;5.50;20.60;;;;;;5043223;28;20221;-79
2022/02/12 03:22:49;;;;;;;9.27;4.10;;;5.40;20.10;;;;;;5042947;28;20221;-79
2022/02/12 03:25:18;;;;;;;5.78;3.53;;;5.40;20.90;;;;;;5038715;28;20584;-79
2022/02/12 03:27:53;;;;;;;4.32;3.40;;;5.40;18.60;;;;;;5040243;28;20215;-78
2022/02/12 03:30:22;;;;;;;7.40;4.28;;;5.30;18.00;;;;;;5042298;28;20226;-78
2022/02/12 03:32:50;;;;;;;6.82;3.67;;;5.30;18.40;;;;;;5044373;28;20258;-79
2022/02/12 03:35:18;;;;;;;4.13;3.72;;;5.30;18.10;;;;;;5041494;28;20204;-79
2022/02/12 03:37:46;;;;;;;5.50;4.00;;;5.30;18.00;;;;;;5041684;28;20266;-79
2022/02/12 03:40:14;;;;;;;6.40;3.83;;;5.30;18.30;;;;;;5040466;28;20228;-77
2022/02/12 03:42:43;;;;;;;8.38;4.40;;;5.30;20.00;;;;;;5044247;28;20198;-79
2022/02/12 03:45:12;;;;;;;4.25;3.78;;;5.30;18.00;;;;;;5042623;28;20204;-79
2022/02/12 03:47:40;;;;;;;4.85;3.50;;;5.40;17.50;;;;;;5042011;28;20198;-79
2022/02/12 03:50:10;;;;;;;6.72;4.35;;;5.20;18.90;;;;;;5042629;28;20228;-78
2022/02/12 03:52:38;;;;;;;6.03;4.35;;;5.20;17.80;;;;;;5043956;28;20928;-79
2022/02/12 03:55:08;;;;;;;7.95;4.30;;;5.20;18.90;;;;;;5042314;28;20702;-79
2022/02/12 03:57:37;;;;;;;8.45;4.13;;;5.20;17.80;;;;;;5040306;28;20197;-79
2022/02/12 04:00:07;;;;;;;3.80;3.03;;;5.20;16.20;;;;;;5048670;28;20222;-79
2022/02/12 04:02:37;;;;;;;7.03;3.10;;;5.20;16.40;;;;;;5043800;28;20200;-78
2022/02/12 04:05:06;;;;;;;4.95;3.28;;;5.10;17.10;;;;;;5042470;28;20209;-79
2022/02/12 04:07:37;;;;;;;7.60;3.65;;;5.20;18.10;;;;;;5042545;28;20209;-78
2022/02/12 04:10:07;;;;;;;4.80;3.25;;;5.20;17.70;;;;;;5039116;28;20217;-79
2022/02/12 04:12:36;;;;;;;5.85;3.15;;;5.10;15.60;;;;;;5042767;28;20200;-79
2022/02/12 04:15:05;;;;;;;7.63;3.42;;;5.40;16.20;;;;;;5038927;28;20680;-77
2022/02/12 04:17:34;;;;;;;10.85;4.03;;;5.10;14.40;;;;;;5041080;28;20320;-79
2022/02/12 04:20:06;;;;;;;3.92;2.85;;;5.10;13.70;;;;;;5044515;28;20258;-79
2022/02/12 04:22:35;;;;;;;3.90;3.15;;;5.00;12.90;;;;;;5044069;28;20202;-78
2022/02/12 04:25:06;;;;;;;5.00;3.60;;;5.10;13.70;;;;;;5043614;28;20197;-79
2022/02/12 04:27:34;;;;;;;7.45;3.35;;;5.00;12.90;;;;;;5038323;28;20218;-79
2022/02/12 04:30:03;;;;;;;6.32;3.20;;;5.00;13.60;;;;;;5037892;28;20232;-79
2022/02/12 04:32:32;;;;;;;4.93;3.30;;;5.00;12.60;;;;;;5048865;28;20683;-78
2022/02/12 04:35:00;;;;;;;8.55;3.25;;;4.90;13.60;;;;;;5039823;28;20198;-79
2022/02/12 04:37:31;;;;;;;2.90;2.70;;;4.90;12.80;;;;;;5040575;28;20196;-78
2022/02/12 04:40:00;;;;;;;4.15;3.17;;;4.90;12.10;;;;;;5043423;28;20227;-77
2022/02/12 04:42:30;;;;;;;4.43;3.13;;;4.90;12.50;;;;;;5041830;28;20213;-78
2022/02/12 04:44:59;;;;;;;4.75;3.03;;;4.80;12.20;;;;;;5039507;28;20200;-78
2022/02/12 04:47:27;;;;;;;4.30;3.90;;;4.80;12.50;;;;;;5041299;28;20275;-78
2022/02/12 04:49:55;;;;;;;5.63;3.47;;;4.90;13.60;;;;;;5038846;28;20749;-78
2022/02/12 04:52:23;;;;;;;3.00;2.63;;;4.90;13.70;;;;;;5041912;28;20202;-79
2022/02/12 04:54:53;;;;;;;7.05;3.90;;;4.90;13.50;;;;;;5038994;28;20199;-78
2022/02/12 04:57:21;;;;;;;4.80;3.72;;;4.80;13.40;;;;;;5044737;28;20205;-78
2022/02/12 04:59:49;;;;;;;4.05;3.25;;;4.80;13.60;;;;;;5040411;28;20224;-78
2022/02/12 05:02:18;;;;;;;4.70;3.33;;;4.80;14.20;;;;;;5035720;28;20308;-77
2022/02/12 05:04:47;;;;;;;3.50;3.13;;;4.80;23.20;;;;;;5041645;28;20244;-78
2022/02/12 05:07:16;;;;;;;4.80;3.72;;;4.80;11.60;;;;;;5042415;28;20195;-79
2022/02/12 05:09:45;;;;;;;8.73;3.03;;;4.80;12.30;;;;;;5042480;28;20740;-79
2022/02/12 05:12:14;;;;;;;5.22;3.47;;;4.80;12.30;;;;;;5042340;28;20215;-78
2022/02/12 05:14:42;;;;;;;4.40;2.67;;;4.90;13.80;;;;;;5041439;28;20199;-79
2022/02/12 05:17:11;;;;;;;6.07;3.05;;;4.90;12.80;;;;;;5036925;28;20231;-78
2022/02/12 05:19:40;;;;;;;2.65;2.42;;;4.80;23.00;;;;;;5039157;28;20224;-79
2022/02/12 05:22:09;;;;;;;2.97;1.98;;;4.90;14.90;;;;;;5044563;28;20211;-79
2022/02/12 05:24:38;;;;;;;2.70;2.28;;;5.00;18.10;;;;;;5039250;28;20201;-79
2022/02/12 05:27:06;;;;;;;2.20;1.98;;;5.00;18.40;;;;;;5043057;28;20203;-80
2022/02/12 05:29:35;;;;;;;3.85;1.90;;;5.10;17.90;;;;;;5038245;28;20212;-79
2022/02/12 05:32:04;;;;;;;4.75;2.85;;;5.10;19.30;;;;;;5038764;28;20225;-79
2022/02/12 05:34:33;;;;;;;4.28;2.90;;;5.20;18.50;;;;;;5044590;28;20220;-78
2022/02/12 05:37:01;;;;;;;4.63;3.05;;;5.20;17.30;;;;;;5039091;28;20195;-78
2022/02/12 05:39:29;;;;;;;3.13;2.92;;;5.20;16.00;;;;;;5038759;28;20766;-79
2022/02/12 05:41:58;;;;;;;5.32;3.45;;;5.10;16.30;;;;;;5042349;28;20909;-78
2022/02/12 05:44:26;;;;;;;5.40;3.78;;;5.10;14.20;;;;;;5041110;28;20273;-79
2022/02/12 05:46:56;;;;;;;6.65;3.17;;;5.00;13.20;;;;;;5040660;28;20204;-79
2022/02/12 05:49:24;;;;;;;5.72;2.95;;;4.90;13.50;;;;;;5040019;28;20278;-78
2022/02/12 05:51:52;;;;;;;7.32;3.50;;;4.80;12.30;;;;;;5038841;28;20201;-77
2022/02/12 05:54:21;;;;;;;7.95;3.10;;;4.80;23.60;;;;;;5037176;28;20209;-78
2022/02/12 05:56:49;;;;;;;4.50;3.17;;;4.80;12.60;;;;;;5042782;28;20286;-78
2022/02/12 05:59:19;;;;;;;4.05;3.10;;;4.80;11.50;;;;;;5040162;28;20225;-78
2022/02/12 06:01:47;;;;;;;3.55;2.83;;;4.70;10.80;;;;;;5039181;28;20228;-78
2022/02/12 06:04:17;;;;;;;4.65;3.55;;;4.60;11.30;;;;;;5036650;28;20200;-77
2022/02/12 06:06:45;;;;;;;6.03;2.42;;;4.60;11.50;;;;;;5037721;28;20228;-78
2022/02/12 06:09:14;;;;;;;5.05;3.60;;;4.60;10.70;;;;;;5040934;28;20216;-79
2022/02/12 06:11:42;;;;;;;5.43;3.15;;;4.60;11.90;;;;;;5042455;28;20208;-79
2022/02/12 06:14:10;;;;;;;4.25;2.53;;;4.60;23.80;;;;;;5043156;28;20225;-79
2022/02/12 06:16:40;;;;;;;8.77;2.85;;;4.70;18.60;;;;;;5044605;28;20217;-79
2022/02/12 06:19:08;;;;;;;5.20;2.40;;;5.10;20.00;;;;;;5044578;28;20259;-79
2022/02/12 06:21:38;;;;;;;4.85;2.45;;;4.80;22.00;;;;;;5043661;28;20281;-80
2022/02/12 06:24:07;;;;;;;5.03;2.38;;;4.90;21.00;;;;;;5044868;28;20208;-80
2022/02/12 06:26:38;;;;;;;8.02;3.13;;;5.00;23.10;;;;;;5043417;28;20228;-79
2022/02/12 06:29:06;;;;;;;3.53;2.03;;;5.10;23.30;;;;;;5041898;28;20710;-79
2022/02/12 06:31:35;;;;;;;4.07;2.37;;;5.10;24.10;;;;;;5040945;28;20659;-80
2022/02/12 06:34:03;;;;;;;5.78;3.13;;;5.10;22.20;;;;;;5046836;28;20863;-79
2022/02/12 06:36:31;;;;;;;3.80;2.22;;;5.00;23.60;;;;;;5040407;28;20206;-79
2022/02/12 06:39:03;;;;;;;4.90;3.10;;;5.10;23.90;;;;;;5041945;28;20597;-79
2022/02/12 06:41:31;;;;;;;5.05;3.50;;;5.10;22.90;;;;;;5041609;28;20198;-79
2022/02/12 06:44:01;;;;;;;5.97;2.42;;;5.10;23.00;;;;;;5046116;28;20295;-79
2022/02/12 06:46:30;;;;;;;5.80;3.10;;;5.20;23.00;;;;;;5040736;28;20217;-80
2022/02/12 06:48:58;;;;;;;6.47;3.42;;;5.20;20.10;;;;;;5040819;28;20597;-80
2022/02/12 06:51:26;;;;;;;6.20;5.40;;;5.20;17.80;;;;;;5043544;28;20201;-79
2022/02/12 06:53:55;;;;;;;7.13;5.25;;;5.10;18.40;;;;;;5044544;28;20451;-80
2022/02/12 06:56:24;;;;;;;8.32;6.20;;;5.00;27.40;;;;;;5044304;28;20916;-80
2022/02/12 06:58:53;;;;;;;8.37;6.27;;;5.00;16.90;;;;;;5044268;28;20292;-79
2022/02/12 07:01:23;;;;;;;10.40;6.00;;;5.00;15.20;;;;;;5039223;28;20503;-76
2022/02/12 07:03:51;;;;;;;6.43;5.22;;;4.80;13.60;;;;;;5041063;28;20214;-78
2022/02/12 07:06:19;;;;;;;5.57;4.43;;;4.80;14.30;;;;;;5044984;28;20211;-78
2022/02/12 07:08:48;;;;;;;7.20;5.03;;;4.80;13.10;;;;;;5062066;28;20627;-77
2022/02/12 07:11:16;;;;;;;6.35;3.80;;;4.70;13.60;;;;;;5040976;28;20313;-78
2022/02/12 07:13:46;;;;;;;5.88;5.20;;;4.70;13.70;;;;;;5041733;28;20211;-77
2022/02/12 07:16:14;;;;;;;6.68;4.85;;;4.90;12.50;;;;;;5036148;28;20228;-78
2022/02/12 07:18:43;;;;;;;6.72;3.53;;;4.70;12.70;;;;;;5039324;28;20204;-77
2022/02/12 07:21:11;;;;;;;3.53;3.22;;;4.70;15.30;;;;;;5039397;28;20697;-77
2022/02/12 07:23:40;;;;;;;5.00;3.53;;;4.70;15.40;;;;;;5052358;28;20203;-77
2022/02/12 07:26:11;;;;;;;5.57;3.30;;;4.60;16.10;;;;;;5043206;28;20219;-76
2022/02/12 07:28:42;;;;;;;8.23;4.78;;;4.70;15.70;;;;;;5037078;28;20451;-78
2022/02/12 07:31:13;;;;;;;7.53;3.13;;;4.70;15.90;;;;;;5039236;28;20622;-77
2022/02/12 07:33:41;;;;;;;5.85;4.38;;;4.70;17.90;;;;;;5048003;28;20208;-78
2022/02/12 07:36:11;;;;;;;6.78;4.97;;;4.90;20.50;;;;;;5040474;28;20681;-78
2022/02/12 07:38:40;;;;;;;5.60;4.07;;;5.00;20.40;;;;;;5041232;28;20206;-78
2022/02/12 07:41:08;;;;;;;10.52;3.90;;;5.00;19.90;;;;;;5041607;28;20256;-78
2022/02/12 07:43:37;;;;;;;7.38;3.03;;;5.10;23.00;;;;;;5043716;28;20665;-77
2022/02/12 07:46:05;;;;;;;7.57;3.45;;;5.10;22.10;;;;;;5058154;28;20197;-78
2022/02/12 07:48:35;;;;;;;4.82;4.03;;;5.10;21.10;;;;;;5038424;28;20224;-77
2022/02/12 07:51:03;;;;;;;5.00;4.35;;;5.10;22.00;;;;;;5041794;28;20228;-77
2022/02/12 07:53:32;;;;;;;5.25;3.53;;;5.20;22.30;;;;;;5035366;28;20340;-77
2022/02/12 07:56:00;;;;;;;5.80;4.05;;;5.20;23.10;;;;;;5039438;28;20630;-78
2022/02/12 07:58:28;;;;;;;5.60;3.50;;;5.30;23.20;;;;;;5042698;28;20208;-77
2022/02/12 08:00:57;;;;;;;6.25;3.55;;;5.30;25.00;;;;;;5038007;28;20229;-78
2022/02/12 08:03:25;;;;;;;7.55;4.30;;;5.40;26.70;;;;;;5042776;28;20249;-78
2022/02/12 08:05:55;;;;;;;8.50;4.65;;;5.50;28.40;;;;;;5042921;28;20197;-77
2022/02/12 08:08:22;;;;;;;4.70;3.20;;;5.70;28.30;;;;;;5040726;28;20201;-78
2022/02/12 08:13:36;;;;;;;6.25;3.45;;;5.90;29.20;;;;;;5045291;28;20451;-78
2022/02/12 08:16:05;;;;;;;3.40;2.95;;;6.00;31.60;;;;;;5039370;28;20562;-78
2022/02/12 08:18:33;;;;;;;4.50;3.20;;;6.20;33.80;;;;;;5038933;28;20445;-78
2022/02/12 08:21:03;;;;;;;4.40;2.37;;;6.20;35.20;;;;;;5039779;28;20226;-78
2022/02/12 08:23:31;;;;;;;5.00;2.53;;;6.50;35.70;;;;;;5041344;28;21034;-78
2022/02/12 08:26:00;;;;;;;5.95;3.05;;;6.60;35.60;;;;;;5042923;28;20459;-77
2022/02/12 08:28:28;;;;;;;4.18;2.35;;;6.80;34.20;;;;;;5037263;28;20189;-78
2022/02/12 08:30:57;;;;;;;2.67;1.93;;;7.00;34.70;;;;;;5036328;28;20229;-80
2022/02/12 08:33:26;;;;;;;2.40;1.77;;;6.80;36.20;;;;;;5038915;28;20443;-77
2022/02/12 08:35:55;;;;;;;2.23;2.03;;;6.90;41.50;;;;;;5040417;28;20467;-77
2022/02/12 08:38:25;;;;;;;6.60;2.20;;;6.90;32.90;;;;;;5038142;28;20484;-78
2022/02/12 08:40:53;;;;;;;2.90;2.00;;;7.00;31.90;;;;;;5044010;28;20478;-78
2022/02/12 08:43:22;;;;;;;4.13;2.00;;;7.00;34.20;;;;;;5039878;28;20564;-77
2022/02/12 08:45:50;;;;;;;3.63;2.00;;;7.20;35.40;;;;;;5040319;28;20456;-77
2022/02/12 08:48:19;;;;;;;4.50;2.23;;;7.30;36.30;;;;;;5040563;28;20448;-76
2022/02/12 08:50:47;;;;;;;5.00;2.60;;;7.50;33.30;;;;;;5046429;28;21003;-79
2022/02/12 08:53:16;;;;;;;4.30;2.00;;;7.50;37.00;;;;;;5038158;28;20497;-78
2022/02/12 08:55:46;;;;;;;5.90;1.90;;;7.70;37.70;;;;;;5043224;28;20440;-79
2022/02/12 08:58:15;;;;;;;3.67;2.63;;;7.80;34.50;;;;;;5042065;28;20475;-76
2022/02/12 09:00:43;;;;;;;3.17;2.17;;;7.60;30.60;;;;;;5038343;28;20534;-77
2022/02/12 09:03:13;;;;;;;4.18;2.40;;;7.60;35.40;;;;;;5047979;28;20439;-79
2022/02/12 09:05:42;;;;;;;4.17;2.30;;;7.50;33.40;;;;;;5049392;28;20634;-79
2022/02/12 09:08:11;;;;;;;4.50;2.10;;;7.80;36.90;;;;;;5043038;28;20532;-78
2022/02/12 09:10:39;;;;;;;4.60;2.40;;;8.00;33.90;;;;;;5042314;28;20821;-78
2022/02/12 09:13:11;;;;;;;4.30;2.60;;;8.10;34.20;;;;;;5036832;28;20455;-79
2022/02/12 09:15:40;;;;;;;2.93;2.27;;;8.20;33.30;;;;;;5047041;28;20453;-81
2022/02/12 09:18:09;;;;;;;3.20;2.07;;;8.30;34.00;;;;;;5037799;28;20957;-79
2022/02/12 09:20:38;;;;;;;2.30;1.63;;;8.40;34.10;;;;;;5047713;28;20477;-78
2022/02/12 09:23:09;;;;;;;2.30;1.53;;;8.50;33.70;;;;;;5043556;28;20457;-79
2022/02/12 09:25:37;;;;;;;2.53;1.70;;;8.50;30.90;;;;;;5036969;28;20459;-78
2022/02/12 09:28:06;;;;;;;4.68;2.00;;;8.50;29.70;;;;;;5038589;28;20451;-78
2022/02/12 09:30:36;;;;;;;3.35;2.08;;;8.60;32.20;;;;;;5035775;28;20523;-77
2022/02/12 09:33:04;;;;;;;3.67;1.70;;;8.50;28.00;;;;;;5040056;28;20197;-78
2022/02/12 09:35:53;;;;;;;6.83;1.87;;;8.60;29.00;;;;;;5039027;28;20941;-77
2022/02/12 09:38:22;;;;;;;3.57;2.07;;;8.60;28.50;;;;;;5045710;28;20480;-78
2022/02/12 09:40:50;;;;;;;3.07;1.70;;;8.80;30.30;;;;;;5040634;28;20487;-77
2022/02/12 09:43:22;;;;;;;3.80;2.10;;;9.00;31.20;;;;;;5048024;28;20475;-78
2022/02/12 09:46:12;;;;;;;3.87;1.83;;;9.30;32.50;;;;;;5043602;28;20454;-78
2022/02/12 09:48:40;;;;;;;3.17;1.90;;;9.60;34.10;;;;;;5049355;28;20451;-79
2022/02/12 09:51:10;;;;;;;2.57;2.27;;;9.90;36.00;;;;;;5048207;28;20525;-78
2022/02/12 09:53:38;;;;;;;3.63;2.17;;;9.90;32.60;;;;;;5049065;28;20455;-79
2022/02/12 09:56:08;;;;;;;4.53;2.43;;;9.90;34.00;;;;;;5041872;28;20446;-79
2022/02/12 09:58:37;;;;;;;4.13;1.93;;;10.20;36.40;;;;;;5042963;28;20462;-79
2022/02/12 10:01:07;;;;;;;3.20;1.83;;;10.60;37.60;;;;;;5041910;28;21052;-79
2022/02/12 10:03:38;;;;;;;4.20;1.57;;;10.80;38.00;;;;;;5041781;28;20444;-80
2022/02/12 10:06:06;;;;;;;2.40;2.00;;;11.10;39.90;;;;;;5041478;28;20452;-79
2022/02/12 10:08:37;;;;;;;2.40;2.20;;;11.30;40.80;;;;;;5046746;28;20446;-78
2022/02/12 10:11:13;;;;;;;6.43;2.35;;;11.30;40.10;;;;;;5044099;28;20443;-78
2022/02/12 10:13:42;;;;;;;2.43;2.10;;;11.30;38.70;;;;;;5044125;28;20247;-79
2022/02/12 10:16:11;;;;;;;5.33;2.13;;;11.50;41.90;;;;;;5041639;28;20465;-78
2022/02/12 10:18:40;;;;;;;4.43;1.97;;;11.80;44.60;;;;;;5047358;28;20457;-78
2022/02/12 10:21:09;;;;;;;2.80;1.80;;;12.00;44.90;;;;;;5041783;28;20469;-78
2022/02/12 10:23:41;;;;;;;3.05;1.80;;;12.30;46.60;;;;;;5043598;28;20466;-79
2022/02/12 10:26:11;;;;;;;3.63;1.50;;;12.30;44.50;;;;;;5038522;28;20694;-78
2022/02/12 10:28:42;;;;;;;3.17;1.60;;;12.30;42.40;;;;;;5048556;28;20461;-78
2022/02/12 10:31:13;;;;;;;3.37;1.50;;;12.30;54.80;;;;;;5042915;28;20503;-78
2022/02/12 10:33:43;;;;;;;2.93;1.63;;;12.30;39.20;;;;;;5044643;28;20796;-78
2022/02/12 10:36:15;;;;;;;2.93;2.07;;;12.00;36.10;;;;;;5044235;28;20801;-80
2022/02/12 10:38:47;;;;;;;4.30;1.40;;;12.10;36.30;;;;;;5043520;28;20458;-78
2022/02/12 10:41:17;;;;;;;5.60;2.00;;;12.30;38.70;;;;;;5040354;28;20458;-76
2022/02/12 10:43:49;;;;;;;6.25;2.20;;;12.50;40.00;;;;;;5035591;28;20443;-78
2022/02/12 10:46:19;;;;;;;3.03;1.60;;;12.50;38.40;;;;;;5042702;28;20698;-78
2022/02/12 10:48:50;;;;;;;5.03;1.80;;;12.60;41.80;;;;;;5038904;28;20535;-78
2022/02/12 10:51:20;;;;;;;5.27;1.53;;;12.90;41.50;;;;;;5045763;28;20604;-78
2022/02/12 10:54:04;;;;;;;3.70;1.87;;;13.20;42.90;;;;;;5039843;28;20463;-77
2022/02/12 10:56:47;;;;;;;2.13;1.93;;;13.30;42.00;;;;;;5038062;28;20890;-77
2022/02/12 10:59:16;;;;;;;2.80;1.97;;;13.10;39.60;;;;;;5036369;28;20500;-77
2022/02/12 11:01:47;;;;;;;1.83;1.40;;;13.30;41.30;;;;;;5044139;28;20577;-77
2022/02/12 11:04:16;;;;;;;3.67;1.83;;;13.40;43.20;;;;;;5042655;28;20465;-77
2022/02/12 11:06:47;;;;;;;2.90;2.20;;;13.40;55.00;;;;;;5039653;28;20873;-78
2022/02/12 11:09:16;;;;;;;3.20;1.93;;;13.30;37.80;;;;;;5044024;28;20457;-78
2022/02/12 11:11:45;;;;;;;4.10;2.10;;;13.30;38.60;;;;;;5038801;28;20449;-77
2022/02/12 11:14:14;;;;;;;4.83;2.53;;;13.60;41.80;;;;;;5041438;28;20449;-77
2022/02/12 11:16:43;;;;;;;3.23;2.23;;;13.80;43.00;;;;;;5037218;28;20458;-78
2022/02/12 11:19:14;;;;;;;3.57;1.80;;;13.90;42.30;;;;;;5043108;28;20875;-78
2022/02/12 11:21:42;;;;;;;1.93;1.57;;;13.90;42.20;;;;;;5036532;28;20453;-79
2022/02/12 11:24:12;;;;;;;2.60;1.70;;;13.90;41.50;;;;;;5041212;28;20454;-78
2022/02/12 11:26:42;;;;;;;2.40;1.90;;;13.90;42.30;;;;;;5040006;28;20494;-80
2022/02/12 11:29:29;;;;;;;2.00;1.80;;;14.10;45.00;;;;;;5039499;28;20487;-78
2022/02/12 11:32:09;;;;;;;3.35;2.00;;;14.40;47.40;;;;;;5039147;28;20459;-78
2022/02/12 11:34:44;;;;;;;3.90;1.93;;;14.60;48.60;;;;;;5038070;28;20193;-78
2022/02/12 11:37:14;;;;;;;3.10;1.67;;;14.80;49.30;;;;;;5041617;28;20452;-78
2022/02/12 11:40:02;;;;;;;6.40;2.40;;;14.90;49.20;;;;;;5049346;28;20986;-78
2022/02/12 11:42:41;;;;;;;3.83;2.13;;;14.70;47.30;;;;;;5048194;28;20916;-78
2022/02/12 11:45:26;;;;;;;1.80;1.60;;;14.60;45.40;;;;;;5047867;28;20474;-78
2022/02/12 11:48:09;;;;;;;3.13;1.97;;;14.40;43.10;;;;;;5042271;28;20462;-78
2022/02/12 11:50:44;;;;;;;4.07;1.87;;;13.80;35.20;;;;;;5047903;28;20477;-79
2022/02/12 11:53:35;;;;;;;3.00;1.97;;;13.50;32.20;;;;;;5040854;28;20454;-78
2022/02/12 11:56:07;;;;;;;3.23;2.13;;;13.20;30.50;;;;;;5038137;28;20463;-78
2022/02/12 11:59:10;;;;;;;4.47;2.40;;;13.00;29.20;;;;;;5041392;28;20461;-78
2022/02/12 12:01:53;;;;;;;2.23;1.97;;;12.70;26.20;;;;;;5077695;28;20551;-77
2022/02/12 12:04:25;;;;;;;4.20;2.20;;;12.40;24.20;;;;;;5073296;28;20464;-77
2022/02/12 12:07:13;;;;;;;2.27;2.03;;;12.20;21.30;;;;;;5041177;28;20448;-78
2022/02/12 12:10:15;;;;;;;3.30;2.10;;;12.10;20.70;;;;;;5040185;28;20574;-78
2022/02/12 12:12:43;;;;;;;3.00;2.80;;;12.10;21.00;;;;;;5044086;28;20454;-77
2022/02/12 12:15:17;;;;;;;2.97;2.13;;;11.90;19.90;;;;;;5040310;28;20466;-78
2022/02/12 12:17:54;;;;;;;3.23;1.60;;;11.90;19.30;;;;;;5036595;28;20477;-79
2022/02/12 12:20:36;;;;;;;3.83;2.20;;;11.90;21.00;;;;;;5040692;28;20477;-78
2022/02/12 12:23:08;;;;;;;2.70;1.90;;;11.90;22.10;;;;;;5038461;28;20489;-78
2022/02/12 12:25:57;;;;;;;3.00;1.87;;;11.90;19.30;;;;;;5037348;28;20454;-78
2022/02/12 12:28:31;;;;;;;1.87;1.50;;;11.80;17.10;;;;;;5039907;28;20449;-78
2022/02/12 12:31:02;;;;;;;2.70;1.60;;;11.70;16.90;;;;;;5039345;28;20477;-78
2022/02/12 12:33:30;;;;;;;1.57;1.47;;;11.60;15.10;;;;;;5035580;28;21046;-77
2022/02/12 12:35:59;;;;;;;2.03;1.83;;;11.60;17.10;;;;;;5039055;28;20961;-78
2022/02/12 12:38:40;;;;;;;3.23;1.70;;;11.70;17.80;;;;;;5033823;28;20462;-78
2022/02/12 12:41:28;;;;;;;2.23;1.67;;;11.90;19.70;;;;;;5048121;28;20470;-80
2022/02/12 12:44:07;;;;;;;3.10;1.60;;;12.00;21.60;;;;;;5036920;28;20990;-78
2022/02/12 12:46:36;;;;;;;2.47;1.60;;;12.10;20.40;;;;;;5046653;28;20455;-78
2022/02/12 12:49:05;;;;;;;3.03;1.47;;;12.20;21.70;;;;;;5040318;28;20456;-77
2022/02/12 12:51:35;;;;;;;1.50;1.13;;;12.40;21.90;;;;;;5062125;28;20479;-78
2022/02/12 12:54:05;;;;;;;2.10;1.17;;;12.30;17.80;;;;;;5046220;28;20840;-77
2022/02/12 12:56:36;;;;;;;2.23;0.93;;;12.30;17.10;;;;;;5048408;28;20588;-78
2022/02/12 12:59:05;;;;;;;1.60;0.90;;;12.00;13.80;;;;;;5046500;28;20460;-77
2022/02/12 13:02:01;;;;;;;4.60;1.00;;;12.00;13.90;;;;;;5045684;28;20446;-78
2022/02/12 13:04:30;;;;;;;0.83;0.80;;;11.90;11.70;;;;;;5041133;28;20890;-78
2022/02/12 13:06:58;;;;;;;0.80;0.80;;;12.10;12.80;;;;;;5043710;28;20540;-79
2022/02/12 13:09:29;;;;;;;1.77;1.40;;;11.90;12.10;;;;;;5055021;28;20475;-78
2022/02/12 13:12:27;;;;;;;3.13;1.10;;;12.10;13.80;;;;;;5047190;28;20535;-77
2022/02/12 13:14:56;;;;;;;1.20;1.10;;;12.10;12.30;;;;;;5048032;28;20439;-78
2022/02/12 13:17:25;;;;;;;0.90;0.90;;;12.00;10.10;;;;;;5033768;28;20467;-78
2022/02/12 13:19:59;;;;;;;2.30;0.93;;;12.00;10.80;;;;;;5075278;28;20483;-78
2022/02/12 13:22:31;;;;;;;1.20;1.00;;;11.90;9.00;;;;;;5032945;28;20455;-77